Airfield :
LOGIN :

Register | Disclaimer

   EN    FR    IT 

 










Legend :    VFR   Marginal VFR   IFR   Intensive IFR   Very Intensive IFR
Visi :
Ceiling :
>= 8 km
>= 3000ft
5 to 8 km
1000 to 3000 ft
1500m to 5 km
500 to 1000 ft
800 to 1500m
200 to 500 ft
< 800m
< 200 ft
Symbols :   Thunderstorms  Fog  Heavy snow  Heavy precipitations  Wind > 20 kt
SIGMETs :     Misc.  Thunderstorms  Icing  Turbulence  Mountain Waves  Volcanic Ashes







- Airport Elevation : 1516 ft
- IATA code : AGB


EDMA - Augsburg

CURRENT METAR :
  • 201350Z 30009KT 8000 RA SCT007 SCT014 OVC051 13/12 Q1003

EXPIRED METARs :
  • 201320Z 31005KT 8000 -RA BKN055 OVC067 13/12 Q1003 RERA
  • 201250Z 32006KT 7000 RA FEW007CB BKN009 OVC063 12/11 Q1003 RETS
  • 201220Z 29007KT 210V360 4000 TSRA FEW004CB BKN006 OVC019 13/12 Q1003
  • 201150Z 27008KT 3800 TSRA FEW013CB BKN015 OVC020 14/13 Q1002
  • 201120Z 26009KT 9999 SCT017 SCT021 OVC025 15/12 Q1002

TAF TAF EDMA
Valid from the 20 at 12:00 until the 20 at 21:00 UTC


201100Z 2012/2021 28008KT 9000 BKN012
TEMPO 2012/2021 4000 RA BKN008
PROB30
TEMPO 2012/2017 2500 TSRA BKN006 BKN020CB
No reported NOTAMs for that airfield.
8 SIGMETs reported for the München FIR (EDMM) :
 
Embedded thunderstorms
EDMM SIGMET 9 VALID 201245/201400 EDZF
EDMM MUNCHEN FIR EMBD TS OBS WI N4852 E01133 - N4753 E01154 - N4756 E01024 - N4827 E01029 - N4852 E01133 FL320 MOV S 15KT NC=
Embedded thunderstorms
EDMM SIGMET 7 VALID 201220/201330 EDZF
EDMM MUNCHEN FIR EMBD TS OBS APRX 35NM WID LINE BTN N5036 E01143 - N5147 E01152 TOP FL320 MOV SSW 20KT NC=
SIGMET 1  cancelation
EDMM SIGMET 4 VALID 201326/201330 EDZF
EDMM MUNCHEN FIR CNL SIGMET 1 201220/201330=
Embedded thunderstorms and hail
EDMM SIGMET 15 VALID 201415/201700 EDZF
EDMM MUNCHEN FIR EMBD TSGR OBS N OF N4930 AND W OF E01145 TOP FL360 MOV SSW 15KT NC=
SIGMET 1  cancelation
EDMM SIGMET 14 VALID 201345/201410 EDZF
EDMM MUNCHEN FIR CNL SIGMET 1 201213/201410=
SIGMET 5  cancelation
EDMM SIGMET 13 VALID 201344/201410 EDZF
EDMM MUNCHEN FIR CNL SIGMET 5 201212/201410=
Embedded thunderstorms
EDMM SIGMET 11 VALID 201325/201430 EDZF
EDMM MUNCHEN FIR EMBD TS OBS APRX 35NM WID LINE BTN N5149 E01119 - N5018 E01112 TOP FL320 MOV SSW 15KT NC=
Embedded thunderstorms
EDMM SIGMET 1 VALID 201220/201330 EDZF
EDMM MUNCHEN FIR EMBD TS OBS APRX 35NM WID LINE BTN N5036 E01143 - N5149 E01151 TOP FL320 MOV SSW 20KT NC=



MET'MAP, your aeronautical weather chart ! - Copyright ORBIFLY December 2007 - Disclaimer

ORBIFLY MET'MAP TEAM :

Programming & Development : Alexandra Zaïnal
Concept & Development : Baudouin d'Aumeries
Co-Development & Prog : Marc-Olivier Méhu
Technical & hardware support : Manuel Goepfert

Contact : metmap@orbifly.com




SOURCES & CREDITS :

   NOAA